首页
METAR-TAF:

METAR-TAF

机场 :

拉纳卡国际机场

拉纳卡, 塞浦路斯

纬度: 34-53N, 经度: 033-38E, 海拔: 2米

当前天气观测

该预报发布于11分钟前的14:00 UTC
风速5节,风向南转西南
温度 22°C
湿度 65%
气压 1020 hPa
能见度10公里或以上
少量云层高于3000英尺

METAR: LCLK 201400Z 20005KT 9999 FEW030 22/15 Q1020 NOSIG

时间: 16:11 (14:11 UTC)

预报

该预报发布于2小时和41分钟前的11:30 UTC
预报有效从20日的 12点(UTC)到 21日的 12点(UTC)
风速10节,风向
能见度10公里或以上
少量云层高于3000英尺
成为
从 20日的 16点(UTC)到 20日的 19点(UTC)
风速7节,风向西北
成为
从 21日的 07点(UTC)到 21日的 10点(UTC)

TAF: LCLK 201130Z 2012/2112 18010KT 9999 FEW030 BECMG 2016/2019 32007KT BECMG 2107/2110 2012KT

超过4000个机场的气象观测和天气预报(METAR&TAF报告)。

可查询的气象台以黄色和红色小点在地图上表示。

将鼠标移到小点上方,可查看气象台名称。

然后点击查看天气观测和预报。

如需切换地图:点击带黑十字的绿色按钮放大地图;点击带横线的绿色按钮缩小地图;或者点击绿色箭头查看邻近地区的地图。


METAR-TAF: